PAKI

Details ICAO PAKI (KPN)
Name KIPNUK
Region USA (Alaska)
Timezone America/Nome (UTC-9.0)
Plans Departing 4
Arriving 6
Stats Elevation 11 ft / 3 m (AMSL)
Location 59.932951° -164.030514°
Runways 1
Magnetic Variation 10.461° E
Sunrise 2017-12-14 19:53:30 UTC / 2017-12-14 10:53:30 Local
Sunset 2017-12-15 01:51:20 UTC / 2017-12-14 16:51:20 Local
Advertisement - Login to hide

Runways

ID Width Length Bearing (true) Bearing (mag) Surface Threshold Offset Overrun Length
15 36 ft / 11 m 2,121 ft / 646 m 165.86° 155.40° Gravel 0 ft / 0 m 0 ft / 0 m
33 36 ft / 11 m 2,121 ft / 646 m 345.86° 335.40° Gravel 0 ft / 0 m 0 ft / 0 m

Map

Weather


0- 5 10 15 20 25 30 35+ Temperature / ° C

Clouds and Precipitation
Forecast for 2017-12-15 06:00 UTC. Updated an hour ago

Ground ~20,000 ft ~40,000 ft Winds

METAR

PAKI 150433Z AUTO 07011KT 2 1/2SM BR OVC002 M10/M11 A2941 RMK AO2 VIS 2V3 FZRANO

TAF

Not found

Frequencies

Recorded 118.32 MHz ASOS
Unicom 122.70 MHz CTAF
Warning: Do not use this data for real-world aviation or navigation. No guarantee of current accuracy is given.